sensor_id;sensor_type;location;lat;lon;timestamp;temperature;humidity
19106;DHT22;9685;54.338;18.672;2023-08-07T00:00:46;18.10;1.00
19106;DHT22;9685;54.338;18.672;2023-08-07T00:03:13;18.10;1.00
19106;DHT22;9685;54.338;18.672;2023-08-07T00:05:45;18.10;1.00
19106;DHT22;9685;54.338;18.672;2023-08-07T00:08:12;18.10;1.00
19106;DHT22;9685;54.338;18.672;2023-08-07T00:10:39;18.10;1.00
19106;DHT22;9685;54.338;18.672;2023-08-07T00:13:06;18.10;1.00
19106;DHT22;9685;54.338;18.672;2023-08-07T00:15:37;18.10;1.00
19106;DHT22;9685;54.338;18.672;2023-08-07T00:18:04;18.00;1.00
19106;DHT22;9685;54.338;18.672;2023-08-07T00:20:31;17.90;1.00
19106;DHT22;9685;54.338;18.672;2023-08-07T00:22:58;17.90;1.00
19106;DHT22;9685;54.338;18.672;2023-08-07T00:25:25;17.90;1.00
19106;DHT22;9685;54.338;18.672;2023-08-07T00:27:52;17.90;1.00
19106;DHT22;9685;54.338;18.672;2023-08-07T00:30:19;17.90;99.90
19106;DHT22;9685;54.338;18.672;2023-08-07T00:32:48;17.90;99.90
19106;DHT22;9685;54.338;18.672;2023-08-07T00:35:15;17.80;99.90
19106;DHT22;9685;54.338;18.672;2023-08-07T00:37:42;17.80;1.00
19106;DHT22;9685;54.338;18.672;2023-08-07T00:40:10;17.80;1.00
19106;DHT22;9685;54.338;18.672;2023-08-07T00:42:37;17.80;1.00
19106;DHT22;9685;54.338;18.672;2023-08-07T00:45:04;17.80;99.90
19106;DHT22;9685;54.338;18.672;2023-08-07T00:47:31;17.70;99.90
19106;DHT22;9685;54.338;18.672;2023-08-07T00:50:02;17.70;99.90
19106;DHT22;9685;54.338;18.672;2023-08-07T00:52:30;17.70;99.90
19106;DHT22;9685;54.338;18.672;2023-08-07T00:54:58;17.70;99.90
19106;DHT22;9685;54.338;18.672;2023-08-07T00:57:25;17.70;99.90
19106;DHT22;9685;54.338;18.672;2023-08-07T00:59:52;17.70;99.90
19106;DHT22;9685;54.338;18.672;2023-08-07T01:02:19;17.70;99.90
19106;DHT22;9685;54.338;18.672;2023-08-07T01:04:46;17.70;99.90
19106;DHT22;9685;54.338;18.672;2023-08-07T01:07:15;17.60;99.90
19106;DHT22;9685;54.338;18.672;2023-08-07T01:09:42;17.60;99.90
19106;DHT22;9685;54.338;18.672;2023-08-07T01:12:15;17.60;99.90
19106;DHT22;9685;54.338;18.672;2023-08-07T01:14:49;17.50;99.90
19106;DHT22;9685;54.338;18.672;2023-08-07T01:17:20;17.50;99.90
19106;DHT22;9685;54.338;18.672;2023-08-07T01:19:50;17.40;99.90
19106;DHT22;9685;54.338;18.672;2023-08-07T01:22:19;17.40;99.90
19106;DHT22;9685;54.338;18.672;2023-08-07T01:24:47;17.30;99.90
19106;DHT22;9685;54.338;18.672;2023-08-07T01:27:28;17.30;99.90
19106;DHT22;9685;54.338;18.672;2023-08-07T01:30:08;17.30;99.90
19106;DHT22;9685;54.338;18.672;2023-08-07T01:32:43;17.30;99.90
19106;DHT22;9685;54.338;18.672;2023-08-07T01:35:16;17.30;99.90
19106;DHT22;9685;54.338;18.672;2023-08-07T01:37:45;17.40;99.90
19106;DHT22;9685;54.338;18.672;2023-08-07T01:40:12;17.30;99.90
19106;DHT22;9685;54.338;18.672;2023-08-07T01:42:40;17.30;1.00
19106;DHT22;9685;54.338;18.672;2023-08-07T01:45:07;17.30;1.00
19106;DHT22;9685;54.338;18.672;2023-08-07T01:47:34;17.30;1.00
19106;DHT22;9685;54.338;18.672;2023-08-07T01:50:02;17.20;1.00
19106;DHT22;9685;54.338;18.672;2023-08-07T01:52:29;17.20;1.00
19106;DHT22;9685;54.338;18.672;2023-08-07T01:54:57;17.30;1.00
19106;DHT22;9685;54.338;18.672;2023-08-07T01:57:24;17.20;1.00
19106;DHT22;9685;54.338;18.672;2023-08-07T01:59:52;17.20;1.00
19106;DHT22;9685;54.338;18.672;2023-08-07T02:02:19;17.30;1.00
19106;DHT22;9685;54.338;18.672;2023-08-07T02:04:45;17.30;1.00
19106;DHT22;9685;54.338;18.672;2023-08-07T02:07:12;17.20;1.00
19106;DHT22;9685;54.338;18.672;2023-08-07T02:09:39;17.20;1.00
19106;DHT22;9685;54.338;18.672;2023-08-07T02:12:08;17.20;1.00
19106;DHT22;9685;54.338;18.672;2023-08-07T02:14:35;17.30;1.00
19106;DHT22;9685;54.338;18.672;2023-08-07T02:17:02;17.20;1.00
19106;DHT22;9685;54.338;18.672;2023-08-07T02:19:29;17.20;1.00
19106;DHT22;9685;54.338;18.672;2023-08-07T02:21:56;17.10;1.00
19106;DHT22;9685;54.338;18.672;2023-08-07T02:24:23;17.10;1.00
19106;DHT22;9685;54.338;18.672;2023-08-07T02:26:50;17.10;1.00
19106;DHT22;9685;54.338;18.672;2023-08-07T02:29:18;17.10;1.00
19106;DHT22;9685;54.338;18.672;2023-08-07T02:31:45;17.00;99.90
19106;DHT22;9685;54.338;18.672;2023-08-07T02:34:12;17.10;99.90
19106;DHT22;9685;54.338;18.672;2023-08-07T02:36:39;17.00;99.90
19106;DHT22;9685;54.338;18.672;2023-08-07T02:39:06;17.00;99.90
19106;DHT22;9685;54.338;18.672;2023-08-07T02:41:33;17.00;99.90
19106;DHT22;9685;54.338;18.672;2023-08-07T02:44:00;17.00;99.90
19106;DHT22;9685;54.338;18.672;2023-08-07T02:46:29;17.00;99.90
19106;DHT22;9685;54.338;18.672;2023-08-07T02:48:55;17.00;99.90
19106;DHT22;9685;54.338;18.672;2023-08-07T02:51:22;17.00;99.90
19106;DHT22;9685;54.338;18.672;2023-08-07T02:53:49;16.90;99.90
19106;DHT22;9685;54.338;18.672;2023-08-07T02:56:16;17.00;99.90
19106;DHT22;9685;54.338;18.672;2023-08-07T02:58:43;16.90;99.90
19106;DHT22;9685;54.338;18.672;2023-08-07T03:01:10;16.90;99.90
19106;DHT22;9685;54.338;18.672;2023-08-07T03:03:39;16.90;99.90
19106;DHT22;9685;54.338;18.672;2023-08-07T03:06:06;16.90;1.00
19106;DHT22;9685;54.338;18.672;2023-08-07T03:08:33;16.90;1.00
19106;DHT22;9685;54.338;18.672;2023-08-07T03:11:00;16.90;99.90
19106;DHT22;9685;54.338;18.672;2023-08-07T03:13:27;17.00;99.90
19106;DHT22;9685;54.338;18.672;2023-08-07T03:15:59;17.00;99.90
19106;DHT22;9685;54.338;18.672;2023-08-07T03:18:26;17.00;99.90
19106;DHT22;9685;54.338;18.672;2023-08-07T03:20:55;17.00;99.90
19106;DHT22;9685;54.338;18.672;2023-08-07T03:23:22;17.00;99.90
19106;DHT22;9685;54.338;18.672;2023-08-07T03:25:49;17.00;99.90
19106;DHT22;9685;54.338;18.672;2023-08-07T03:28:16;17.00;99.90
19106;DHT22;9685;54.338;18.672;2023-08-07T03:30:43;17.00;99.90
19106;DHT22;9685;54.338;18.672;2023-08-07T03:33:11;17.00;99.90
19106;DHT22;9685;54.338;18.672;2023-08-07T03:35:37;17.00;99.90
19106;DHT22;9685;54.338;18.672;2023-08-07T03:38:06;17.00;99.90
19106;DHT22;9685;54.338;18.672;2023-08-07T03:40:33;17.00;99.90
19106;DHT22;9685;54.338;18.672;2023-08-07T03:43:00;17.00;99.90
19106;DHT22;9685;54.338;18.672;2023-08-07T03:45:27;17.00;99.90
19106;DHT22;9685;54.338;18.672;2023-08-07T03:47:54;17.00;99.90
19106;DHT22;9685;54.338;18.672;2023-08-07T03:50:21;17.00;99.90
19106;DHT22;9685;54.338;18.672;2023-08-07T03:52:48;16.90;99.90
19106;DHT22;9685;54.338;18.672;2023-08-07T03:55:16;17.00;23.50
19106;DHT22;9685;54.338;18.672;2023-08-07T03:57:43;16.90;99.90
19106;DHT22;9685;54.338;18.672;2023-08-07T04:00:11;17.00;80.00
19106;DHT22;9685;54.338;18.672;2023-08-07T04:02:39;17.00;1.00
19106;DHT22;9685;54.338;18.672;2023-08-07T04:05:06;17.00;1.00
19106;DHT22;9685;54.338;18.672;2023-08-07T04:07:33;17.10;1.00
19106;DHT22;9685;54.338;18.672;2023-08-07T04:10:00;17.00;1.00
19106;DHT22;9685;54.338;18.672;2023-08-07T04:12:28;17.00;1.00
19106;DHT22;9685;54.338;18.672;2023-08-07T04:14:55;17.10;1.00
19106;DHT22;9685;54.338;18.672;2023-08-07T04:17:22;17.20;99.90
19106;DHT22;9685;54.338;18.672;2023-08-07T04:19:49;17.20;99.90
19106;DHT22;9685;54.338;18.672;2023-08-07T04:22:16;17.30;99.90
19106;DHT22;9685;54.338;18.672;2023-08-07T04:24:42;17.30;98.90
19106;DHT22;9685;54.338;18.672;2023-08-07T04:27:09;17.30;47.00
19106;DHT22;9685;54.338;18.672;2023-08-07T04:29:39;17.30;10.30
19106;DHT22;9685;54.338;18.672;2023-08-07T04:32:06;17.30;48.70
19106;DHT22;9685;54.338;18.672;2023-08-07T04:34:33;17.30;5.20
19106;DHT22;9685;54.338;18.672;2023-08-07T04:37:01;17.40;1.00
19106;DHT22;9685;54.338;18.672;2023-08-07T04:39:28;17.30;1.00
19106;DHT22;9685;54.338;18.672;2023-08-07T04:41:55;17.30;1.00
19106;DHT22;9685;54.338;18.672;2023-08-07T04:44:22;17.30;1.00
19106;DHT22;9685;54.338;18.672;2023-08-07T04:46:51;17.40;1.00
19106;DHT22;9685;54.338;18.672;2023-08-07T04:49:18;17.30;1.00
19106;DHT22;9685;54.338;18.672;2023-08-07T04:51:44;17.40;1.00
19106;DHT22;9685;54.338;18.672;2023-08-07T04:54:11;17.40;1.00
19106;DHT22;9685;54.338;18.672;2023-08-07T04:56:38;17.40;1.00
19106;DHT22;9685;54.338;18.672;2023-08-07T04:59:06;17.40;1.00
19106;DHT22;9685;54.338;18.672;2023-08-07T05:01:33;17.40;1.00
19106;DHT22;9685;54.338;18.672;2023-08-07T05:04:01;17.50;1.00
19106;DHT22;9685;54.338;18.672;2023-08-07T05:06:28;17.50;1.00
19106;DHT22;9685;54.338;18.672;2023-08-07T05:08:55;17.50;1.00
19106;DHT22;9685;54.338;18.672;2023-08-07T05:11:22;17.60;1.00
19106;DHT22;9685;54.338;18.672;2023-08-07T05:13:49;17.70;1.00
19106;DHT22;9685;54.338;18.672;2023-08-07T05:16:16;17.70;1.00
19106;DHT22;9685;54.338;18.672;2023-08-07T05:18:44;17.70;1.00
19106;DHT22;9685;54.338;18.672;2023-08-07T05:21:12;17.80;1.00
19106;DHT22;9685;54.338;18.672;2023-08-07T05:23:39;17.80;1.00
19106;DHT22;9685;54.338;18.672;2023-08-07T05:26:06;17.80;1.00
19106;DHT22;9685;54.338;18.672;2023-08-07T05:28:33;17.80;1.00
19106;DHT22;9685;54.338;18.672;2023-08-07T05:31:00;17.90;1.00
19106;DHT22;9685;54.338;18.672;2023-08-07T05:33:27;17.90;1.00
19106;DHT22;9685;54.338;18.672;2023-08-07T05:35:54;18.00;1.00
19106;DHT22;9685;54.338;18.672;2023-08-07T05:38:23;18.00;1.00
19106;DHT22;9685;54.338;18.672;2023-08-07T05:40:50;18.00;1.00
19106;DHT22;9685;54.338;18.672;2023-08-07T05:43:17;18.00;1.00
19106;DHT22;9685;54.338;18.672;2023-08-07T05:45:44;18.10;1.00
19106;DHT22;9685;54.338;18.672;2023-08-07T05:48:12;18.20;1.00
19106;DHT22;9685;54.338;18.672;2023-08-07T05:50:39;18.20;99.90
19106;DHT22;9685;54.338;18.672;2023-08-07T05:53:05;18.30;99.90
19106;DHT22;9685;54.338;18.672;2023-08-07T05:55:34;18.20;99.90
19106;DHT22;9685;54.338;18.672;2023-08-07T05:58:01;18.10;99.90
19106;DHT22;9685;54.338;18.672;2023-08-07T06:00:28;18.10;99.90
19106;DHT22;9685;54.338;18.672;2023-08-07T06:02:55;18.20;99.90
19106;DHT22;9685;54.338;18.672;2023-08-07T06:05:22;18.30;99.90
19106;DHT22;9685;54.338;18.672;2023-08-07T06:07:50;18.30;99.90
19106;DHT22;9685;54.338;18.672;2023-08-07T06:10:17;18.30;99.90
19106;DHT22;9685;54.338;18.672;2023-08-07T06:12:45;18.30;99.90
19106;DHT22;9685;54.338;18.672;2023-08-07T06:15:12;18.30;99.90
19106;DHT22;9685;54.338;18.672;2023-08-07T06:17:39;18.30;99.90
19106;DHT22;9685;54.338;18.672;2023-08-07T06:20:08;18.40;99.90
19106;DHT22;9685;54.338;18.672;2023-08-07T06:22:37;18.40;99.90
19106;DHT22;9685;54.338;18.672;2023-08-07T06:25:05;18.50;99.90
19106;DHT22;9685;54.338;18.672;2023-08-07T06:27:32;18.50;99.90
19106;DHT22;9685;54.338;18.672;2023-08-07T06:30:01;18.60;99.90
19106;DHT22;9685;54.338;18.672;2023-08-07T06:32:28;18.60;99.90
19106;DHT22;9685;54.338;18.672;2023-08-07T06:34:55;18.50;99.90
19106;DHT22;9685;54.338;18.672;2023-08-07T06:37:22;18.60;99.90
19106;DHT22;9685;54.338;18.672;2023-08-07T06:39:49;18.60;99.90
19106;DHT22;9685;54.338;18.672;2023-08-07T06:42:16;18.50;99.90
19106;DHT22;9685;54.338;18.672;2023-08-07T06:44:43;18.40;99.90
19106;DHT22;9685;54.338;18.672;2023-08-07T06:47:12;18.40;99.90
19106;DHT22;9685;54.338;18.672;2023-08-07T06:49:39;18.50;99.90
19106;DHT22;9685;54.338;18.672;2023-08-07T06:52:06;18.50;99.90
19106;DHT22;9685;54.338;18.672;2023-08-07T06:54:33;18.60;99.90
19106;DHT22;9685;54.338;18.672;2023-08-07T06:57:00;18.70;99.90
19106;DHT22;9685;54.338;18.672;2023-08-07T06:59:27;18.70;99.90
19106;DHT22;9685;54.338;18.672;2023-08-07T07:01:54;18.80;99.90
19106;DHT22;9685;54.338;18.672;2023-08-07T07:04:22;18.70;99.90
19106;DHT22;9685;54.338;18.672;2023-08-07T07:06:49;18.70;99.90
19106;DHT22;9685;54.338;18.672;2023-08-07T07:09:16;18.70;99.90
19106;DHT22;9685;54.338;18.672;2023-08-07T07:11:43;18.90;99.90
19106;DHT22;9685;54.338;18.672;2023-08-07T07:14:11;18.90;99.90
19106;DHT22;9685;54.338;18.672;2023-08-07T07:16:38;18.90;99.90
19106;DHT22;9685;54.338;18.672;2023-08-07T07:19:04;18.90;99.90
19106;DHT22;9685;54.338;18.672;2023-08-07T07:21:35;18.90;99.90
19106;DHT22;9685;54.338;18.672;2023-08-07T07:24:02;18.80;99.90
19106;DHT22;9685;54.338;18.672;2023-08-07T07:26:29;18.90;99.90
19106;DHT22;9685;54.338;18.672;2023-08-07T07:28:56;18.90;99.90
19106;DHT22;9685;54.338;18.672;2023-08-07T07:31:23;18.90;99.90
19106;DHT22;9685;54.338;18.672;2023-08-07T07:33:50;18.90;99.90
19106;DHT22;9685;54.338;18.672;2023-08-07T07:36:18;19.00;99.90
19106;DHT22;9685;54.338;18.672;2023-08-07T07:38:47;19.10;99.90
19106;DHT22;9685;54.338;18.672;2023-08-07T07:41:14;19.30;99.90
19106;DHT22;9685;54.338;18.672;2023-08-07T07:43:41;19.40;99.90
19106;DHT22;9685;54.338;18.672;2023-08-07T07:46:08;19.40;99.90
19106;DHT22;9685;54.338;18.672;2023-08-07T07:48:35;19.60;99.90
19106;DHT22;9685;54.338;18.672;2023-08-07T07:51:03;19.70;99.90
19106;DHT22;9685;54.338;18.672;2023-08-07T07:53:30;19.70;99.90
19106;DHT22;9685;54.338;18.672;2023-08-07T07:55:59;19.80;99.90
19106;DHT22;9685;54.338;18.672;2023-08-07T07:58:26;19.70;99.90
19106;DHT22;9685;54.338;18.672;2023-08-07T08:00:53;19.90;99.90
19106;DHT22;9685;54.338;18.672;2023-08-07T08:03:20;19.90;99.90
19106;DHT22;9685;54.338;18.672;2023-08-07T08:05:50;20.10;99.90
19106;DHT22;9685;54.338;18.672;2023-08-07T08:08:17;20.10;99.90
19106;DHT22;9685;54.338;18.672;2023-08-07T08:10:44;20.00;99.90
19106;DHT22;9685;54.338;18.672;2023-08-07T08:13:14;20.10;99.90
19106;DHT22;9685;54.338;18.672;2023-08-07T08:15:41;20.00;99.90
19106;DHT22;9685;54.338;18.672;2023-08-07T08:18:08;20.00;99.90
19106;DHT22;9685;54.338;18.672;2023-08-07T08:20:35;19.90;99.90
19106;DHT22;9685;54.338;18.672;2023-08-07T08:23:02;19.90;99.90
19106;DHT22;9685;54.338;18.672;2023-08-07T08:25:30;19.80;99.90
19106;DHT22;9685;54.338;18.672;2023-08-07T08:27:58;19.80;99.90
19106;DHT22;9685;54.338;18.672;2023-08-07T08:30:28;19.70;99.90
19106;DHT22;9685;54.338;18.672;2023-08-07T08:32:55;19.70;99.90
19106;DHT22;9685;54.338;18.672;2023-08-07T08:35:22;19.70;99.90
19106;DHT22;9685;54.338;18.672;2023-08-07T08:37:49;19.80;99.90
19106;DHT22;9685;54.338;18.672;2023-08-07T08:40:16;19.90;99.90
19106;DHT22;9685;54.338;18.672;2023-08-07T08:42:45;19.80;99.90
19106;DHT22;9685;54.338;18.672;2023-08-07T08:45:13;19.90;99.90
19106;DHT22;9685;54.338;18.672;2023-08-07T08:47:43;19.90;99.90
19106;DHT22;9685;54.338;18.672;2023-08-07T08:50:13;19.90;99.90
19106;DHT22;9685;54.338;18.672;2023-08-07T08:52:42;19.90;99.90
19106;DHT22;9685;54.338;18.672;2023-08-07T08:55:09;19.90;99.90
19106;DHT22;9685;54.338;18.672;2023-08-07T08:57:37;19.80;99.90
19106;DHT22;9685;54.338;18.672;2023-08-07T09:00:05;19.80;99.90
19106;DHT22;9685;54.338;18.672;2023-08-07T09:02:45;19.80;99.90
19106;DHT22;9685;54.338;18.672;2023-08-07T09:05:14;19.80;99.90
19106;DHT22;9685;54.338;18.672;2023-08-07T09:07:41;19.80;99.90
19106;DHT22;9685;54.338;18.672;2023-08-07T09:10:10;19.90;99.90
19106;DHT22;9685;54.338;18.672;2023-08-07T09:12:40;20.00;99.90
19106;DHT22;9685;54.338;18.672;2023-08-07T09:15:09;20.10;99.90
19106;DHT22;9685;54.338;18.672;2023-08-07T09:17:40;20.20;99.90
19106;DHT22;9685;54.338;18.672;2023-08-07T09:20:10;20.10;99.90
19106;DHT22;9685;54.338;18.672;2023-08-07T09:22:38;20.20;99.90
19106;DHT22;9685;54.338;18.672;2023-08-07T09:25:07;20.30;99.90
19106;DHT22;9685;54.338;18.672;2023-08-07T09:27:36;20.30;99.90
19106;DHT22;9685;54.338;18.672;2023-08-07T09:30:07;20.30;99.90
19106;DHT22;9685;54.338;18.672;2023-08-07T09:32:35;20.40;99.90
19106;DHT22;9685;54.338;18.672;2023-08-07T09:35:03;20.40;99.90
19106;DHT22;9685;54.338;18.672;2023-08-07T09:37:32;20.60;99.90
19106;DHT22;9685;54.338;18.672;2023-08-07T09:40:00;20.60;99.90
19106;DHT22;9685;54.338;18.672;2023-08-07T09:42:31;20.40;99.90
19106;DHT22;9685;54.338;18.672;2023-08-07T09:45:00;20.50;99.90
19106;DHT22;9685;54.338;18.672;2023-08-07T09:47:27;20.40;99.90
19106;DHT22;9685;54.338;18.672;2023-08-07T09:49:55;20.40;99.90
19106;DHT22;9685;54.338;18.672;2023-08-07T09:52:24;20.40;99.90
19106;DHT22;9685;54.338;18.672;2023-08-07T09:54:57;20.30;99.90
19106;DHT22;9685;54.338;18.672;2023-08-07T09:57:25;20.10;99.90
19106;DHT22;9685;54.338;18.672;2023-08-07T09:59:52;20.20;99.90
19106;DHT22;9685;54.338;18.672;2023-08-07T10:02:19;20.00;99.90
19106;DHT22;9685;54.338;18.672;2023-08-07T10:04:48;20.20;99.90
19106;DHT22;9685;54.338;18.672;2023-08-07T10:07:16;20.20;99.90
19106;DHT22;9685;54.338;18.672;2023-08-07T10:09:44;20.20;99.90
19106;DHT22;9685;54.338;18.672;2023-08-07T10:12:14;20.40;99.90
19106;DHT22;9685;54.338;18.672;2023-08-07T10:14:42;20.50;99.90
19106;DHT22;9685;54.338;18.672;2023-08-07T10:17:11;20.60;99.90
19106;DHT22;9685;54.338;18.672;2023-08-07T10:19:38;20.70;99.90
19106;DHT22;9685;54.338;18.672;2023-08-07T10:22:06;20.80;99.90
19106;DHT22;9685;54.338;18.672;2023-08-07T10:24:35;20.90;99.90
19106;DHT22;9685;54.338;18.672;2023-08-07T10:27:07;20.90;99.90
19106;DHT22;9685;54.338;18.672;2023-08-07T10:29:36;20.90;99.90
19106;DHT22;9685;54.338;18.672;2023-08-07T10:32:05;20.90;99.90
19106;DHT22;9685;54.338;18.672;2023-08-07T10:34:34;20.70;99.90
19106;DHT22;9685;54.338;18.672;2023-08-07T10:37:01;20.70;99.90
19106;DHT22;9685;54.338;18.672;2023-08-07T10:39:28;20.80;99.90
19106;DHT22;9685;54.338;18.672;2023-08-07T10:41:55;21.00;99.90
19106;DHT22;9685;54.338;18.672;2023-08-07T10:44:23;21.00;99.90
19106;DHT22;9685;54.338;18.672;2023-08-07T10:46:53;21.00;99.90
19106;DHT22;9685;54.338;18.672;2023-08-07T10:49:36;21.20;99.90
19106;DHT22;9685;54.338;18.672;2023-08-07T10:52:07;21.20;99.90
19106;DHT22;9685;54.338;18.672;2023-08-07T10:54:38;21.20;99.90
19106;DHT22;9685;54.338;18.672;2023-08-07T10:57:10;21.10;99.90
19106;DHT22;9685;54.338;18.672;2023-08-07T10:59:38;21.10;99.90
19106;DHT22;9685;54.338;18.672;2023-08-07T11:02:11;21.00;99.90
19106;DHT22;9685;54.338;18.672;2023-08-07T11:04:39;21.30;99.90
19106;DHT22;9685;54.338;18.672;2023-08-07T11:07:06;21.60;99.90
19106;DHT22;9685;54.338;18.672;2023-08-07T11:09:34;21.80;99.90
19106;DHT22;9685;54.338;18.672;2023-08-07T11:12:01;22.10;99.90
19106;DHT22;9685;54.338;18.672;2023-08-07T11:14:28;22.30;99.90
19106;DHT22;9685;54.338;18.672;2023-08-07T11:16:55;22.10;99.90
19106;DHT22;9685;54.338;18.672;2023-08-07T11:19:24;22.30;99.90
19106;DHT22;9685;54.338;18.672;2023-08-07T11:21:53;22.40;99.90
19106;DHT22;9685;54.338;18.672;2023-08-07T11:24:22;22.30;99.90
19106;DHT22;9685;54.338;18.672;2023-08-07T11:26:49;21.80;99.90
19106;DHT22;9685;54.338;18.672;2023-08-07T11:29:18;21.90;99.90
19106;DHT22;9685;54.338;18.672;2023-08-07T11:31:45;22.00;99.90
19106;DHT22;9685;54.338;18.672;2023-08-07T11:34:12;22.00;99.90
19106;DHT22;9685;54.338;18.672;2023-08-07T11:36:44;22.30;99.90
19106;DHT22;9685;54.338;18.672;2023-08-07T11:39:13;22.00;99.90
19106;DHT22;9685;54.338;18.672;2023-08-07T11:41:42;21.70;99.90
19106;DHT22;9685;54.338;18.672;2023-08-07T11:44:10;21.60;99.90
19106;DHT22;9685;54.338;18.672;2023-08-07T11:46:37;21.60;99.90
19106;DHT22;9685;54.338;18.672;2023-08-07T11:49:04;21.50;99.90
19106;DHT22;9685;54.338;18.672;2023-08-07T11:51:31;21.60;99.90
19106;DHT22;9685;54.338;18.672;2023-08-07T11:54:00;21.60;99.90
19106;DHT22;9685;54.338;18.672;2023-08-07T11:56:27;21.60;99.90
19106;DHT22;9685;54.338;18.672;2023-08-07T11:58:54;21.40;99.90
19106;DHT22;9685;54.338;18.672;2023-08-07T12:01:23;21.70;99.90
19106;DHT22;9685;54.338;18.672;2023-08-07T12:03:52;22.10;99.90
19106;DHT22;9685;54.338;18.672;2023-08-07T12:06:19;22.40;99.90
19106;DHT22;9685;54.338;18.672;2023-08-07T12:08:48;22.40;99.90
19106;DHT22;9685;54.338;18.672;2023-08-07T12:11:17;22.40;99.90
19106;DHT22;9685;54.338;18.672;2023-08-07T12:13:45;22.30;99.90
19106;DHT22;9685;54.338;18.672;2023-08-07T12:16:14;22.20;99.90
19106;DHT22;9685;54.338;18.672;2023-08-07T12:18:44;22.10;99.90
19106;DHT22;9685;54.338;18.672;2023-08-07T12:21:13;22.00;99.90
19106;DHT22;9685;54.338;18.672;2023-08-07T12:23:40;21.80;99.90
19106;DHT22;9685;54.338;18.672;2023-08-07T12:26:07;21.90;99.90
19106;DHT22;9685;54.338;18.672;2023-08-07T12:28:36;22.00;99.90
19106;DHT22;9685;54.338;18.672;2023-08-07T12:31:03;22.00;99.90
19106;DHT22;9685;54.338;18.672;2023-08-07T12:33:30;22.00;99.90
19106;DHT22;9685;54.338;18.672;2023-08-07T12:35:57;22.00;99.90
19106;DHT22;9685;54.338;18.672;2023-08-07T12:38:25;22.00;99.90
19106;DHT22;9685;54.338;18.672;2023-08-07T12:40:52;21.90;99.90
19106;DHT22;9685;54.338;18.672;2023-08-07T12:43:19;21.80;99.90
19106;DHT22;9685;54.338;18.672;2023-08-07T12:45:47;21.50;99.90
19106;DHT22;9685;54.338;18.672;2023-08-07T12:48:14;21.40;99.90
19106;DHT22;9685;54.338;18.672;2023-08-07T12:50:41;21.60;99.90
19106;DHT22;9685;54.338;18.672;2023-08-07T12:53:08;21.50;99.90
19106;DHT22;9685;54.338;18.672;2023-08-07T12:55:35;21.40;99.90
19106;DHT22;9685;54.338;18.672;2023-08-07T12:58:02;21.20;99.90
19106;DHT22;9685;54.338;18.672;2023-08-07T13:00:29;21.20;99.90
19106;DHT22;9685;54.338;18.672;2023-08-07T13:02:58;21.10;99.90
19106;DHT22;9685;54.338;18.672;2023-08-07T13:05:25;21.10;99.90
19106;DHT22;9685;54.338;18.672;2023-08-07T13:07:52;21.30;99.90
19106;DHT22;9685;54.338;18.672;2023-08-07T13:10:21;21.10;99.90
19106;DHT22;9685;54.338;18.672;2023-08-07T13:12:48;21.00;99.90
19106;DHT22;9685;54.338;18.672;2023-08-07T13:15:17;21.10;99.90
19106;DHT22;9685;54.338;18.672;2023-08-07T13:17:44;21.00;99.90
19106;DHT22;9685;54.338;18.672;2023-08-07T13:20:13;21.00;99.90
19106;DHT22;9685;54.338;18.672;2023-08-07T13:22:41;21.00;99.90
19106;DHT22;9685;54.338;18.672;2023-08-07T13:25:08;20.90;99.90
19106;DHT22;9685;54.338;18.672;2023-08-07T13:27:36;20.80;99.90
19106;DHT22;9685;54.338;18.672;2023-08-07T13:30:05;20.90;99.90
19106;DHT22;9685;54.338;18.672;2023-08-07T13:32:32;20.90;99.90
19106;DHT22;9685;54.338;18.672;2023-08-07T13:34:59;20.90;99.90
19106;DHT22;9685;54.338;18.672;2023-08-07T13:37:27;20.70;99.90
19106;DHT22;9685;54.338;18.672;2023-08-07T13:39:54;20.70;99.90
19106;DHT22;9685;54.338;18.672;2023-08-07T13:42:23;20.70;99.90
19106;DHT22;9685;54.338;18.672;2023-08-07T13:44:51;20.80;99.90
19106;DHT22;9685;54.338;18.672;2023-08-07T13:47:18;20.80;99.90
19106;DHT22;9685;54.338;18.672;2023-08-07T13:49:46;20.90;99.90
19106;DHT22;9685;54.338;18.672;2023-08-07T13:52:13;21.00;99.90
19106;DHT22;9685;54.338;18.672;2023-08-07T13:54:42;21.00;99.90
19106;DHT22;9685;54.338;18.672;2023-08-07T13:57:09;21.10;99.90
19106;DHT22;9685;54.338;18.672;2023-08-07T13:59:36;21.30;99.90
19106;DHT22;9685;54.338;18.672;2023-08-07T14:02:03;21.30;99.90
19106;DHT22;9685;54.338;18.672;2023-08-07T14:04:30;21.10;99.90
19106;DHT22;9685;54.338;18.672;2023-08-07T14:06:57;21.10;99.90
19106;DHT22;9685;54.338;18.672;2023-08-07T14:09:24;21.10;99.90
19106;DHT22;9685;54.338;18.672;2023-08-07T14:11:53;21.10;99.90
19106;DHT22;9685;54.338;18.672;2023-08-07T14:14:21;21.00;99.90
19106;DHT22;9685;54.338;18.672;2023-08-07T14:16:48;21.00;99.90
19106;DHT22;9685;54.338;18.672;2023-08-07T14:19:15;20.80;99.90
19106;DHT22;9685;54.338;18.672;2023-08-07T14:21:42;20.70;99.90
19106;DHT22;9685;54.338;18.672;2023-08-07T14:24:09;20.60;99.90
19106;DHT22;9685;54.338;18.672;2023-08-07T14:26:36;20.60;99.90
19106;DHT22;9685;54.338;18.672;2023-08-07T14:29:03;20.60;99.90
19106;DHT22;9685;54.338;18.672;2023-08-07T14:31:31;20.50;99.90
19106;DHT22;9685;54.338;18.672;2023-08-07T14:33:58;20.50;99.90
19106;DHT22;9685;54.338;18.672;2023-08-07T14:36:25;20.40;99.90
19106;DHT22;9685;54.338;18.672;2023-08-07T14:38:52;20.30;99.90
19106;DHT22;9685;54.338;18.672;2023-08-07T14:41:19;20.20;99.90
19106;DHT22;9685;54.338;18.672;2023-08-07T14:43:46;20.10;99.90
19106;DHT22;9685;54.338;18.672;2023-08-07T14:46:16;19.90;99.90
19106;DHT22;9685;54.338;18.672;2023-08-07T14:48:43;19.70;99.90
19106;DHT22;9685;54.338;18.672;2023-08-07T14:51:10;19.50;99.90
19106;DHT22;9685;54.338;18.672;2023-08-07T14:53:37;19.60;99.90
19106;DHT22;9685;54.338;18.672;2023-08-07T14:56:04;19.50;99.90
19106;DHT22;9685;54.338;18.672;2023-08-07T14:58:31;19.20;99.90
19106;DHT22;9685;54.338;18.672;2023-08-07T15:00:59;19.10;99.90
19106;DHT22;9685;54.338;18.672;2023-08-07T15:03:27;19.00;99.90
19106;DHT22;9685;54.338;18.672;2023-08-07T15:05:54;18.90;99.90
19106;DHT22;9685;54.338;18.672;2023-08-07T15:08:22;18.80;99.90
19106;DHT22;9685;54.338;18.672;2023-08-07T15:10:51;18.70;99.90
19106;DHT22;9685;54.338;18.672;2023-08-07T15:13:18;18.70;99.90
19106;DHT22;9685;54.338;18.672;2023-08-07T15:15:45;18.80;99.90
19106;DHT22;9685;54.338;18.672;2023-08-07T15:18:12;18.80;99.90
19106;DHT22;9685;54.338;18.672;2023-08-07T15:20:40;19.00;99.90
19106;DHT22;9685;54.338;18.672;2023-08-07T15:23:07;19.00;99.90
19106;DHT22;9685;54.338;18.672;2023-08-07T15:25:37;19.20;99.90
19106;DHT22;9685;54.338;18.672;2023-08-07T15:28:05;19.00;99.90
19106;DHT22;9685;54.338;18.672;2023-08-07T15:30:32;19.20;99.90
19106;DHT22;9685;54.338;18.672;2023-08-07T15:32:59;19.40;99.90
19106;DHT22;9685;54.338;18.672;2023-08-07T15:35:29;19.40;99.90
19106;DHT22;9685;54.338;18.672;2023-08-07T15:37:58;19.80;99.90